Terminal Aerodrome Forecast
Issued by NWS

Home | Current Version | Previous Version | Text Only | Print | Product List | Glossary On
Versions: 1 2 3 4 5 6 7 8 9 10 11 12 13 14 15 16 17 18 19 20 21 22 23 24 25 26
412
FTUS41 KBUF 301835 AAC
TAFJHW
TAF AMD
KJHW 301835Z 3019/0118 07007KT P6SM SCT025 BKN050
     FM302200 14006KT P6SM OVC035
     FM010200 13008KT 6SM -RA OVC035
     FM010400 13011KT 6SM -RA OVC020
     FM010900 16016G26KT 6SM -RA OVC007
      AMD LTD TO CLD VIS AND WIND=

USA.gov is the U.S. government's official web portal to all federal, state and local government web resources and services.